Java Village, New York
Current Conditions -  °F | °C
As of 5:54 AM on Saturday 22 Nov 2014 (Local Time) from KBUF Reporting Station
Overcast Overcast  
Wind Chill: 13°   Ceiling: 13000
Heat Index: 25°   Visibility: 10mi
Dew Point: 11°   Wind: 14mph
Humidity: 55%   Direction: 190°S
Pressure: 30.23"   Gusts: NA
Location:  42.67°N, 78.44°W
Report Text: KBUF 221054Z 19012KT 10SM OVC130 M04/M12 A3023 RMK AO2 SLP249 T10391117
Loading
Personal Weather Stations






























Interactive Weather Map New forecast layout! Learn more

10-Day Weather Forecast

Advertisements
Track Severe Weather on mobile